sensor_id;sensor_type;location;lat;lon;timestamp;P1;durP1;ratioP1;P2;durP2;ratioP2
48215;SDS011;34005;48.844;10.098;2022-12-18T00:01:20;45.67;;;24.35;;
48215;SDS011;34005;48.844;10.098;2022-12-18T00:03:48;46.57;;;25.37;;
48215;SDS011;34005;48.844;10.098;2022-12-18T00:06:17;44.43;;;23.90;;
48215;SDS011;34005;48.844;10.098;2022-12-18T00:08:46;44.47;;;24.77;;
48215;SDS011;34005;48.844;10.098;2022-12-18T00:11:16;42.23;;;25.43;;
48215;SDS011;34005;48.844;10.098;2022-12-18T00:13:45;44.97;;;24.23;;
48215;SDS011;34005;48.844;10.098;2022-12-18T00:16:14;45.77;;;25.33;;
48215;SDS011;34005;48.844;10.098;2022-12-18T00:18:44;45.87;;;24.60;;
48215;SDS011;34005;48.844;10.098;2022-12-18T00:21:12;47.87;;;25.00;;
48215;SDS011;34005;48.844;10.098;2022-12-18T00:23:41;45.30;;;24.73;;
48215;SDS011;34005;48.844;10.098;2022-12-18T00:26:11;47.47;;;24.77;;
48215;SDS011;34005;48.844;10.098;2022-12-18T00:28:42;43.67;;;24.20;;
48215;SDS011;34005;48.844;10.098;2022-12-18T00:31:11;42.97;;;24.37;;
48215;SDS011;34005;48.844;10.098;2022-12-18T00:33:40;47.00;;;24.60;;
48215;SDS011;34005;48.844;10.098;2022-12-18T00:36:09;48.90;;;24.07;;
48215;SDS011;34005;48.844;10.098;2022-12-18T00:38:38;43.03;;;22.77;;
48215;SDS011;34005;48.844;10.098;2022-12-18T00:41:06;43.77;;;22.33;;
48215;SDS011;34005;48.844;10.098;2022-12-18T00:43:34;40.73;;;22.63;;
48215;SDS011;34005;48.844;10.098;2022-12-18T00:46:03;47.53;;;24.83;;
48215;SDS011;34005;48.844;10.098;2022-12-18T00:48:31;46.57;;;24.23;;
48215;SDS011;34005;48.844;10.098;2022-12-18T00:50:59;45.53;;;23.33;;
48215;SDS011;34005;48.844;10.098;2022-12-18T00:53:27;43.07;;;22.23;;
48215;SDS011;34005;48.844;10.098;2022-12-18T00:55:54;40.90;;;22.33;;
48215;SDS011;34005;48.844;10.098;2022-12-18T00:58:22;43.17;;;21.63;;
48215;SDS011;34005;48.844;10.098;2022-12-18T01:00:49;40.13;;;21.53;;
48215;SDS011;34005;48.844;10.098;2022-12-18T01:03:18;38.87;;;21.07;;
48215;SDS011;34005;48.844;10.098;2022-12-18T01:05:46;40.37;;;21.50;;
48215;SDS011;34005;48.844;10.098;2022-12-18T01:08:13;43.93;;;22.23;;
48215;SDS011;34005;48.844;10.098;2022-12-18T01:10:41;39.43;;;19.97;;
48215;SDS011;34005;48.844;10.098;2022-12-18T01:13:08;34.43;;;19.43;;
48215;SDS011;34005;48.844;10.098;2022-12-18T01:15:36;40.40;;;21.07;;
48215;SDS011;34005;48.844;10.098;2022-12-18T01:18:03;39.57;;;21.27;;
48215;SDS011;34005;48.844;10.098;2022-12-18T01:20:32;42.93;;;21.77;;
48215;SDS011;34005;48.844;10.098;2022-12-18T01:23:00;38.30;;;20.23;;
48215;SDS011;34005;48.844;10.098;2022-12-18T01:25:27;34.87;;;20.47;;
48215;SDS011;34005;48.844;10.098;2022-12-18T01:27:55;37.73;;;20.47;;
48215;SDS011;34005;48.844;10.098;2022-12-18T01:30:23;39.17;;;20.93;;
48215;SDS011;34005;48.844;10.098;2022-12-18T01:32:50;38.80;;;20.27;;
48215;SDS011;34005;48.844;10.098;2022-12-18T01:35:18;39.60;;;20.20;;
48215;SDS011;34005;48.844;10.098;2022-12-18T01:37:47;39.40;;;21.43;;
48215;SDS011;34005;48.844;10.098;2022-12-18T01:40:14;38.87;;;22.07;;
48215;SDS011;34005;48.844;10.098;2022-12-18T01:42:42;42.43;;;21.77;;
48215;SDS011;34005;48.844;10.098;2022-12-18T01:45:21;40.70;;;20.87;;
48215;SDS011;34005;48.844;10.098;2022-12-18T01:47:52;38.37;;;21.60;;
48215;SDS011;34005;48.844;10.098;2022-12-18T01:50:22;40.43;;;21.40;;
48215;SDS011;34005;48.844;10.098;2022-12-18T01:52:54;44.00;;;21.23;;
48215;SDS011;34005;48.844;10.098;2022-12-18T01:55:24;43.67;;;22.33;;
48215;SDS011;34005;48.844;10.098;2022-12-18T01:57:56;42.47;;;21.83;;
48215;SDS011;34005;48.844;10.098;2022-12-18T02:00:26;43.63;;;22.07;;
48215;SDS011;34005;48.844;10.098;2022-12-18T02:02:54;41.57;;;22.80;;
48215;SDS011;34005;48.844;10.098;2022-12-18T02:05:24;41.57;;;22.87;;
48215;SDS011;34005;48.844;10.098;2022-12-18T02:08:05;45.83;;;22.13;;
48215;SDS011;34005;48.844;10.098;2022-12-18T02:10:41;49.53;;;22.63;;
48215;SDS011;34005;48.844;10.098;2022-12-18T02:13:16;50.07;;;24.17;;
48215;SDS011;34005;48.844;10.098;2022-12-18T02:15:50;46.57;;;22.97;;
48215;SDS011;34005;48.844;10.098;2022-12-18T02:18:22;48.77;;;23.90;;
48215;SDS011;34005;48.844;10.098;2022-12-18T02:20:54;46.40;;;22.17;;
48215;SDS011;34005;48.844;10.098;2022-12-18T02:23:34;47.70;;;24.50;;
48215;SDS011;34005;48.844;10.098;2022-12-18T02:26:19;48.17;;;23.77;;
48215;SDS011;34005;48.844;10.098;2022-12-18T02:28:52;51.70;;;23.87;;
48215;SDS011;34005;48.844;10.098;2022-12-18T02:33:52;47.50;;;22.37;;
48215;SDS011;34005;48.844;10.098;2022-12-18T02:36:25;42.07;;;20.97;;
48215;SDS011;34005;48.844;10.098;2022-12-18T02:38:55;40.23;;;20.80;;
48215;SDS011;34005;48.844;10.098;2022-12-18T02:41:26;42.00;;;20.50;;
48215;SDS011;34005;48.844;10.098;2022-12-18T02:43:56;42.80;;;21.27;;
48215;SDS011;34005;48.844;10.098;2022-12-18T02:46:25;43.50;;;20.37;;
48215;SDS011;34005;48.844;10.098;2022-12-18T02:48:59;43.20;;;21.15;;
48215;SDS011;34005;48.844;10.098;2022-12-18T02:51:33;41.30;;;19.60;;
48215;SDS011;34005;48.844;10.098;2022-12-18T02:54:13;35.13;;;18.23;;
48215;SDS011;34005;48.844;10.098;2022-12-18T02:56:52;36.80;;;18.33;;
48215;SDS011;34005;48.844;10.098;2022-12-18T02:59:23;37.63;;;20.25;;
48215;SDS011;34005;48.844;10.098;2022-12-18T03:02:01;36.03;;;18.93;;
48215;SDS011;34005;48.844;10.098;2022-12-18T03:04:43;35.97;;;16.53;;
48215;SDS011;34005;48.844;10.098;2022-12-18T03:07:16;32.63;;;17.15;;
48215;SDS011;34005;48.844;10.098;2022-12-18T03:09:48;35.70;;;16.60;;
48215;SDS011;34005;48.844;10.098;2022-12-18T03:12:21;33.00;;;17.23;;
48215;SDS011;34005;48.844;10.098;2022-12-18T03:14:56;40.20;;;18.27;;
48215;SDS011;34005;48.844;10.098;2022-12-18T03:17:28;30.92;;;16.42;;
48215;SDS011;34005;48.844;10.098;2022-12-18T03:19:59;35.00;;;16.53;;
48215;SDS011;34005;48.844;10.098;2022-12-18T03:22:32;35.53;;;17.33;;
48215;SDS011;34005;48.844;10.098;2022-12-18T03:25:02;37.33;;;17.27;;
48215;SDS011;34005;48.844;10.098;2022-12-18T03:27:35;33.93;;;15.93;;
48215;SDS011;34005;48.844;10.098;2022-12-18T03:30:07;35.20;;;17.23;;
48215;SDS011;34005;48.844;10.098;2022-12-18T03:32:39;31.70;;;16.48;;
48215;SDS011;34005;48.844;10.098;2022-12-18T03:35:10;37.33;;;19.20;;
48215;SDS011;34005;48.844;10.098;2022-12-18T03:37:40;40.77;;;17.33;;
48215;SDS011;34005;48.844;10.098;2022-12-18T03:40:08;37.67;;;17.67;;
48215;SDS011;34005;48.844;10.098;2022-12-18T03:42:39;36.93;;;17.27;;
48215;SDS011;34005;48.844;10.098;2022-12-18T03:45:16;44.03;;;18.33;;
48215;SDS011;34005;48.844;10.098;2022-12-18T03:47:57;39.00;;;17.90;;
48215;SDS011;34005;48.844;10.098;2022-12-18T03:50:31;36.27;;;17.80;;
48215;SDS011;34005;48.844;10.098;2022-12-18T03:53:08;39.57;;;17.13;;
48215;SDS011;34005;48.844;10.098;2022-12-18T03:55:48;41.87;;;17.30;;
48215;SDS011;34005;48.844;10.098;2022-12-18T03:58:20;39.93;;;17.70;;
48215;SDS011;34005;48.844;10.098;2022-12-18T04:00:51;35.90;;;16.07;;
48215;SDS011;34005;48.844;10.098;2022-12-18T04:03:23;42.25;;;17.45;;
48215;SDS011;34005;48.844;10.098;2022-12-18T04:05:52;40.07;;;18.80;;
48215;SDS011;34005;48.844;10.098;2022-12-18T04:08:22;40.03;;;17.23;;
48215;SDS011;34005;48.844;10.098;2022-12-18T04:10:51;39.40;;;19.33;;
48215;SDS011;34005;48.844;10.098;2022-12-18T04:13:23;40.00;;;17.30;;
48215;SDS011;34005;48.844;10.098;2022-12-18T04:15:51;36.88;;;16.50;;
48215;SDS011;34005;48.844;10.098;2022-12-18T04:18:19;34.30;;;15.73;;
48215;SDS011;34005;48.844;10.098;2022-12-18T04:20:46;39.53;;;18.93;;
48215;SDS011;34005;48.844;10.098;2022-12-18T04:23:14;40.73;;;19.10;;
48215;SDS011;34005;48.844;10.098;2022-12-18T04:25:42;38.03;;;16.70;;
48215;SDS011;34005;48.844;10.098;2022-12-18T04:28:09;39.63;;;17.37;;
48215;SDS011;34005;48.844;10.098;2022-12-18T04:30:38;37.23;;;16.80;;
48215;SDS011;34005;48.844;10.098;2022-12-18T04:33:07;40.30;;;17.37;;
48215;SDS011;34005;48.844;10.098;2022-12-18T04:35:35;36.57;;;18.20;;
48215;SDS011;34005;48.844;10.098;2022-12-18T04:38:03;42.00;;;19.53;;
48215;SDS011;34005;48.844;10.098;2022-12-18T04:40:32;37.47;;;16.83;;
48215;SDS011;34005;48.844;10.098;2022-12-18T04:43:01;36.87;;;17.20;;
48215;SDS011;34005;48.844;10.098;2022-12-18T04:45:29;38.03;;;17.33;;
48215;SDS011;34005;48.844;10.098;2022-12-18T04:47:58;40.03;;;17.87;;
48215;SDS011;34005;48.844;10.098;2022-12-18T04:50:26;43.83;;;18.17;;
48215;SDS011;34005;48.844;10.098;2022-12-18T04:52:54;35.63;;;16.80;;
48215;SDS011;34005;48.844;10.098;2022-12-18T04:55:24;42.47;;;18.77;;
48215;SDS011;34005;48.844;10.098;2022-12-18T04:57:52;38.00;;;17.40;;
48215;SDS011;34005;48.844;10.098;2022-12-18T05:00:20;40.03;;;16.77;;
48215;SDS011;34005;48.844;10.098;2022-12-18T05:02:49;41.73;;;17.83;;
48215;SDS011;34005;48.844;10.098;2022-12-18T05:05:18;46.10;;;19.87;;
48215;SDS011;34005;48.844;10.098;2022-12-18T05:07:46;48.53;;;18.13;;
48215;SDS011;34005;48.844;10.098;2022-12-18T05:10:13;42.93;;;19.40;;
48215;SDS011;34005;48.844;10.098;2022-12-18T05:12:41;41.80;;;17.83;;
48215;SDS011;34005;48.844;10.098;2022-12-18T05:15:22;39.37;;;17.87;;
48215;SDS011;34005;48.844;10.098;2022-12-18T05:17:50;37.80;;;18.27;;
48215;SDS011;34005;48.844;10.098;2022-12-18T05:20:19;41.53;;;18.73;;
48215;SDS011;34005;48.844;10.098;2022-12-18T05:22:46;45.87;;;19.37;;
48215;SDS011;34005;48.844;10.098;2022-12-18T05:25:14;38.00;;;17.27;;
48215;SDS011;34005;48.844;10.098;2022-12-18T05:27:42;39.37;;;19.37;;
48215;SDS011;34005;48.844;10.098;2022-12-18T05:30:10;41.73;;;18.73;;
48215;SDS011;34005;48.844;10.098;2022-12-18T05:32:39;38.40;;;17.23;;
48215;SDS011;34005;48.844;10.098;2022-12-18T05:35:08;40.60;;;18.60;;
48215;SDS011;34005;48.844;10.098;2022-12-18T05:37:38;44.40;;;19.27;;
48215;SDS011;34005;48.844;10.098;2022-12-18T05:40:09;37.88;;;18.60;;
48215;SDS011;34005;48.844;10.098;2022-12-18T05:42:38;36.33;;;18.37;;
48215;SDS011;34005;48.844;10.098;2022-12-18T05:45:06;41.40;;;17.93;;
48215;SDS011;34005;48.844;10.098;2022-12-18T05:47:34;42.47;;;17.83;;
48215;SDS011;34005;48.844;10.098;2022-12-18T05:50:02;35.33;;;15.60;;
48215;SDS011;34005;48.844;10.098;2022-12-18T05:52:30;36.93;;;15.80;;
48215;SDS011;34005;48.844;10.098;2022-12-18T05:54:59;39.73;;;18.13;;
48215;SDS011;34005;48.844;10.098;2022-12-18T05:57:26;42.07;;;17.63;;
48215;SDS011;34005;48.844;10.098;2022-12-18T05:59:54;41.40;;;18.07;;
48215;SDS011;34005;48.844;10.098;2022-12-18T06:02:21;38.80;;;17.70;;
48215;SDS011;34005;48.844;10.098;2022-12-18T06:04:49;39.80;;;16.50;;
48215;SDS011;34005;48.844;10.098;2022-12-18T06:07:17;44.83;;;18.43;;
48215;SDS011;34005;48.844;10.098;2022-12-18T06:09:44;41.07;;;16.70;;
48215;SDS011;34005;48.844;10.098;2022-12-18T06:12:13;44.77;;;17.87;;
48215;SDS011;34005;48.844;10.098;2022-12-18T06:14:41;38.30;;;16.27;;
48215;SDS011;34005;48.844;10.098;2022-12-18T06:17:08;42.30;;;18.53;;
48215;SDS011;34005;48.844;10.098;2022-12-18T06:19:36;44.13;;;19.03;;
48215;SDS011;34005;48.844;10.098;2022-12-18T06:22:03;45.27;;;21.43;;
48215;SDS011;34005;48.844;10.098;2022-12-18T06:24:31;44.23;;;19.83;;
48215;SDS011;34005;48.844;10.098;2022-12-18T06:26:59;40.03;;;19.30;;
48215;SDS011;34005;48.844;10.098;2022-12-18T06:29:28;42.40;;;19.33;;
48215;SDS011;34005;48.844;10.098;2022-12-18T06:31:55;42.43;;;17.30;;
48215;SDS011;34005;48.844;10.098;2022-12-18T06:34:23;40.70;;;18.67;;
48215;SDS011;34005;48.844;10.098;2022-12-18T06:36:51;48.40;;;21.47;;
48215;SDS011;34005;48.844;10.098;2022-12-18T06:39:18;42.00;;;20.40;;
48215;SDS011;34005;48.844;10.098;2022-12-18T06:41:46;53.87;;;22.40;;
48215;SDS011;34005;48.844;10.098;2022-12-18T06:44:13;43.67;;;20.30;;
48215;SDS011;34005;48.844;10.098;2022-12-18T06:46:42;46.90;;;20.93;;
48215;SDS011;34005;48.844;10.098;2022-12-18T06:49:10;54.27;;;22.10;;
48215;SDS011;34005;48.844;10.098;2022-12-18T06:51:38;47.87;;;20.70;;
48215;SDS011;34005;48.844;10.098;2022-12-18T06:54:06;50.83;;;22.47;;
48215;SDS011;34005;48.844;10.098;2022-12-18T06:56:34;52.20;;;21.90;;
48215;SDS011;34005;48.844;10.098;2022-12-18T06:59:02;56.10;;;22.40;;
48215;SDS011;34005;48.844;10.098;2022-12-18T07:01:29;55.17;;;22.83;;
48215;SDS011;34005;48.844;10.098;2022-12-18T07:03:58;50.47;;;21.87;;
48215;SDS011;34005;48.844;10.098;2022-12-18T07:06:26;52.50;;;23.53;;
48215;SDS011;34005;48.844;10.098;2022-12-18T07:08:54;57.50;;;22.87;;
48215;SDS011;34005;48.844;10.098;2022-12-18T07:11:22;56.07;;;24.17;;
48215;SDS011;34005;48.844;10.098;2022-12-18T07:13:50;52.93;;;22.03;;
48215;SDS011;34005;48.844;10.098;2022-12-18T07:16:20;50.03;;;22.47;;
48215;SDS011;34005;48.844;10.098;2022-12-18T07:18:51;47.03;;;20.93;;
48215;SDS011;34005;48.844;10.098;2022-12-18T07:21:20;55.87;;;23.73;;
48215;SDS011;34005;48.844;10.098;2022-12-18T07:23:48;60.07;;;24.07;;
48215;SDS011;34005;48.844;10.098;2022-12-18T07:26:17;57.37;;;23.57;;
48215;SDS011;34005;48.844;10.098;2022-12-18T07:28:45;52.83;;;23.20;;
48215;SDS011;34005;48.844;10.098;2022-12-18T07:31:14;59.10;;;23.63;;
48215;SDS011;34005;48.844;10.098;2022-12-18T07:33:43;55.27;;;24.03;;
48215;SDS011;34005;48.844;10.098;2022-12-18T07:36:11;52.27;;;22.37;;
48215;SDS011;34005;48.844;10.098;2022-12-18T07:38:41;57.37;;;23.87;;
48215;SDS011;34005;48.844;10.098;2022-12-18T07:41:09;52.90;;;22.60;;
48215;SDS011;34005;48.844;10.098;2022-12-18T07:43:39;65.17;;;24.50;;
48215;SDS011;34005;48.844;10.098;2022-12-18T07:46:08;51.80;;;23.10;;
48215;SDS011;34005;48.844;10.098;2022-12-18T07:48:42;55.17;;;23.47;;
48215;SDS011;34005;48.844;10.098;2022-12-18T07:51:15;53.80;;;24.40;;
48215;SDS011;34005;48.844;10.098;2022-12-18T07:53:45;53.63;;;23.40;;
48215;SDS011;34005;48.844;10.098;2022-12-18T07:56:17;51.83;;;21.50;;
48215;SDS011;34005;48.844;10.098;2022-12-18T07:58:55;54.50;;;23.10;;
48215;SDS011;34005;48.844;10.098;2022-12-18T08:01:23;59.03;;;24.17;;
48215;SDS011;34005;48.844;10.098;2022-12-18T08:03:51;62.73;;;25.83;;
48215;SDS011;34005;48.844;10.098;2022-12-18T08:06:19;59.20;;;24.50;;
48215;SDS011;34005;48.844;10.098;2022-12-18T08:08:51;48.97;;;22.77;;
48215;SDS011;34005;48.844;10.098;2022-12-18T08:11:19;61.03;;;25.10;;
48215;SDS011;34005;48.844;10.098;2022-12-18T08:13:47;53.87;;;24.40;;
48215;SDS011;34005;48.844;10.098;2022-12-18T08:16:15;59.10;;;23.20;;
48215;SDS011;34005;48.844;10.098;2022-12-18T08:18:44;52.30;;;23.20;;
48215;SDS011;34005;48.844;10.098;2022-12-18T08:21:12;48.37;;;21.70;;
48215;SDS011;34005;48.844;10.098;2022-12-18T08:23:42;54.10;;;24.90;;
48215;SDS011;34005;48.844;10.098;2022-12-18T08:26:12;51.33;;;22.93;;
48215;SDS011;34005;48.844;10.098;2022-12-18T08:28:41;52.30;;;23.23;;
48215;SDS011;34005;48.844;10.098;2022-12-18T08:31:09;49.63;;;21.77;;
48215;SDS011;34005;48.844;10.098;2022-12-18T08:33:37;52.77;;;23.87;;
48215;SDS011;34005;48.844;10.098;2022-12-18T08:36:08;55.45;;;23.80;;
48215;SDS011;34005;48.844;10.098;2022-12-18T08:38:36;47.93;;;22.47;;
48215;SDS011;34005;48.844;10.098;2022-12-18T08:41:05;51.87;;;23.67;;
48215;SDS011;34005;48.844;10.098;2022-12-18T08:43:35;48.20;;;20.77;;
48215;SDS011;34005;48.844;10.098;2022-12-18T08:46:21;50.03;;;20.83;;
48215;SDS011;34005;48.844;10.098;2022-12-18T08:48:51;50.60;;;22.50;;
48215;SDS011;34005;48.844;10.098;2022-12-18T08:51:19;49.20;;;21.87;;
48215;SDS011;34005;48.844;10.098;2022-12-18T08:53:47;44.67;;;19.33;;
48215;SDS011;34005;48.844;10.098;2022-12-18T08:56:15;46.13;;;18.97;;
48215;SDS011;34005;48.844;10.098;2022-12-18T08:58:44;46.47;;;18.67;;
48215;SDS011;34005;48.844;10.098;2022-12-18T09:01:12;45.07;;;21.03;;
48215;SDS011;34005;48.844;10.098;2022-12-18T09:03:40;47.10;;;21.30;;
48215;SDS011;34005;48.844;10.098;2022-12-18T09:06:09;45.53;;;21.13;;
48215;SDS011;34005;48.844;10.098;2022-12-18T09:08:41;42.08;;;20.88;;
48215;SDS011;34005;48.844;10.098;2022-12-18T09:11:13;47.90;;;21.00;;
48215;SDS011;34005;48.844;10.098;2022-12-18T09:13:43;41.47;;;19.45;;
48215;SDS011;34005;48.844;10.098;2022-12-18T09:16:11;42.50;;;19.75;;
48215;SDS011;34005;48.844;10.098;2022-12-18T09:18:39;37.83;;;16.93;;
48215;SDS011;34005;48.844;10.098;2022-12-18T09:21:08;36.53;;;17.43;;
48215;SDS011;34005;48.844;10.098;2022-12-18T09:23:36;36.00;;;17.40;;
48215;SDS011;34005;48.844;10.098;2022-12-18T09:26:04;41.30;;;18.90;;
48215;SDS011;34005;48.844;10.098;2022-12-18T09:28:32;38.30;;;19.03;;
48215;SDS011;34005;48.844;10.098;2022-12-18T09:31:04;39.40;;;18.57;;
48215;SDS011;34005;48.844;10.098;2022-12-18T09:33:34;42.20;;;18.93;;
48215;SDS011;34005;48.844;10.098;2022-12-18T09:36:02;39.80;;;17.13;;
48215;SDS011;34005;48.844;10.098;2022-12-18T09:38:31;37.60;;;16.57;;
48215;SDS011;34005;48.844;10.098;2022-12-18T09:40:59;40.67;;;18.63;;
48215;SDS011;34005;48.844;10.098;2022-12-18T09:43:31;45.77;;;19.93;;
48215;SDS011;34005;48.844;10.098;2022-12-18T09:46:06;37.07;;;17.27;;
48215;SDS011;34005;48.844;10.098;2022-12-18T09:48:38;40.13;;;18.20;;
48215;SDS011;34005;48.844;10.098;2022-12-18T09:51:11;43.20;;;18.80;;
48215;SDS011;34005;48.844;10.098;2022-12-18T09:53:42;35.03;;;17.88;;
48215;SDS011;34005;48.844;10.098;2022-12-18T09:56:16;40.28;;;19.50;;
48215;SDS011;34005;48.844;10.098;2022-12-18T09:58:49;43.73;;;18.27;;
48215;SDS011;34005;48.844;10.098;2022-12-18T10:01:24;37.40;;;16.67;;
48215;SDS011;34005;48.844;10.098;2022-12-18T10:04:07;37.17;;;19.73;;
48215;SDS011;34005;48.844;10.098;2022-12-18T10:06:37;37.87;;;20.27;;
48215;SDS011;34005;48.844;10.098;2022-12-18T10:09:12;37.33;;;18.33;;
48215;SDS011;34005;48.844;10.098;2022-12-18T10:11:48;42.50;;;19.83;;
48215;SDS011;34005;48.844;10.098;2022-12-18T10:14:23;43.73;;;20.57;;
48215;SDS011;34005;48.844;10.098;2022-12-18T10:17:00;37.03;;;18.43;;
48215;SDS011;34005;48.844;10.098;2022-12-18T10:19:37;40.80;;;18.67;;
48215;SDS011;34005;48.844;10.098;2022-12-18T10:22:19;39.47;;;19.75;;
48215;SDS011;34005;48.844;10.098;2022-12-18T10:24:55;38.23;;;18.60;;
48215;SDS011;34005;48.844;10.098;2022-12-18T10:27:27;45.63;;;20.58;;
48215;SDS011;34005;48.844;10.098;2022-12-18T10:29:56;41.33;;;18.83;;
48215;SDS011;34005;48.844;10.098;2022-12-18T10:32:26;45.22;;;21.65;;
48215;SDS011;34005;48.844;10.098;2022-12-18T10:34:55;42.47;;;20.77;;
48215;SDS011;34005;48.844;10.098;2022-12-18T10:37:27;39.83;;;19.52;;
48215;SDS011;34005;48.844;10.098;2022-12-18T10:40:05;42.20;;;18.00;;
48215;SDS011;34005;48.844;10.098;2022-12-18T10:42:40;40.50;;;20.57;;
48215;SDS011;34005;48.844;10.098;2022-12-18T10:45:11;45.77;;;20.53;;
48215;SDS011;34005;48.844;10.098;2022-12-18T10:47:43;38.65;;;18.90;;
48215;SDS011;34005;48.844;10.098;2022-12-18T10:50:18;39.63;;;19.43;;
48215;SDS011;34005;48.844;10.098;2022-12-18T10:52:57;38.25;;;18.15;;
48215;SDS011;34005;48.844;10.098;2022-12-18T10:55:27;37.20;;;18.60;;
48215;SDS011;34005;48.844;10.098;2022-12-18T10:58:12;40.08;;;18.63;;
48215;SDS011;34005;48.844;10.098;2022-12-18T11:01:02;39.28;;;18.20;;
48215;SDS011;34005;48.844;10.098;2022-12-18T11:03:34;46.67;;;23.17;;
48215;SDS011;34005;48.844;10.098;2022-12-18T11:06:04;41.17;;;18.55;;
48215;SDS011;34005;48.844;10.098;2022-12-18T11:08:33;38.22;;;17.70;;
48215;SDS011;34005;48.844;10.098;2022-12-18T11:11:02;32.65;;;16.52;;
48215;SDS011;34005;48.844;10.098;2022-12-18T11:13:30;39.33;;;18.53;;
48215;SDS011;34005;48.844;10.098;2022-12-18T11:15:58;36.10;;;17.85;;
48215;SDS011;34005;48.844;10.098;2022-12-18T11:18:28;40.60;;;18.77;;
48215;SDS011;34005;48.844;10.098;2022-12-18T11:20:58;40.50;;;19.52;;
48215;SDS011;34005;48.844;10.098;2022-12-18T11:23:32;38.08;;;18.15;;
48215;SDS011;34005;48.844;10.098;2022-12-18T11:26:02;38.45;;;18.67;;
48215;SDS011;34005;48.844;10.098;2022-12-18T11:28:36;36.75;;;17.70;;
48215;SDS011;34005;48.844;10.098;2022-12-18T11:31:18;40.92;;;19.67;;
48215;SDS011;34005;48.844;10.098;2022-12-18T11:33:56;36.47;;;18.52;;
48215;SDS011;34005;48.844;10.098;2022-12-18T11:36:52;33.93;;;16.70;;
48215;SDS011;34005;48.844;10.098;2022-12-18T11:39:21;33.50;;;15.68;;
48215;SDS011;34005;48.844;10.098;2022-12-18T11:41:56;34.95;;;18.40;;
48215;SDS011;34005;48.844;10.098;2022-12-18T11:44:38;38.97;;;17.90;;
48215;SDS011;34005;48.844;10.098;2022-12-18T11:47:11;49.20;;;23.48;;
48215;SDS011;34005;48.844;10.098;2022-12-18T11:49:47;39.58;;;19.75;;
48215;SDS011;34005;48.844;10.098;2022-12-18T11:52:18;39.75;;;18.58;;
48215;SDS011;34005;48.844;10.098;2022-12-18T11:54:50;41.67;;;19.15;;
48215;SDS011;34005;48.844;10.098;2022-12-18T11:57:24;36.70;;;19.33;;
48215;SDS011;34005;48.844;10.098;2022-12-18T12:00:02;37.38;;;19.70;;
48215;SDS011;34005;48.844;10.098;2022-12-18T12:02:46;35.30;;;18.15;;
48215;SDS011;34005;48.844;10.098;2022-12-18T12:05:31;38.15;;;17.65;;
48215;SDS011;34005;48.844;10.098;2022-12-18T12:08:13;40.13;;;18.20;;
48215;SDS011;34005;48.844;10.098;2022-12-18T12:10:50;34.60;;;18.25;;
48215;SDS011;34005;48.844;10.098;2022-12-18T12:13:30;35.00;;;17.70;;
48215;SDS011;34005;48.844;10.098;2022-12-18T12:16:14;38.88;;;18.88;;
48215;SDS011;34005;48.844;10.098;2022-12-18T12:18:49;32.08;;;16.33;;
48215;SDS011;34005;48.844;10.098;2022-12-18T12:21:28;34.10;;;16.80;;
48215;SDS011;34005;48.844;10.098;2022-12-18T12:24:12;39.33;;;17.77;;
48215;SDS011;34005;48.844;10.098;2022-12-18T12:26:53;37.00;;;17.83;;
48215;SDS011;34005;48.844;10.098;2022-12-18T12:29:37;32.15;;;16.60;;
48215;SDS011;34005;48.844;10.098;2022-12-18T12:32:17;36.42;;;17.83;;
48215;SDS011;34005;48.844;10.098;2022-12-18T12:34:55;37.72;;;17.98;;
48215;SDS011;34005;48.844;10.098;2022-12-18T12:37:38;36.47;;;18.80;;
48215;SDS011;34005;48.844;10.098;2022-12-18T12:40:18;32.88;;;15.65;;
48215;SDS011;34005;48.844;10.098;2022-12-18T12:43:27;37.28;;;17.27;;
48215;SDS011;34005;48.844;10.098;2022-12-18T12:46:02;41.95;;;20.95;;
48215;SDS011;34005;48.844;10.098;2022-12-18T12:48:36;40.72;;;19.17;;
48215;SDS011;34005;48.844;10.098;2022-12-18T12:51:10;37.70;;;18.80;;
48215;SDS011;34005;48.844;10.098;2022-12-18T12:53:43;38.15;;;17.63;;
48215;SDS011;34005;48.844;10.098;2022-12-18T12:56:14;35.08;;;17.58;;
48215;SDS011;34005;48.844;10.098;2022-12-18T12:58:46;40.50;;;18.20;;
48215;SDS011;34005;48.844;10.098;2022-12-18T13:01:25;36.20;;;17.63;;
48215;SDS011;34005;48.844;10.098;2022-12-18T13:04:02;35.00;;;17.45;;
48215;SDS011;34005;48.844;10.098;2022-12-18T13:06:40;36.38;;;18.80;;
48215;SDS011;34005;48.844;10.098;2022-12-18T13:09:13;38.13;;;18.05;;
48215;SDS011;34005;48.844;10.098;2022-12-18T13:11:42;36.90;;;18.80;;
48215;SDS011;34005;48.844;10.098;2022-12-18T13:14:30;35.40;;;18.30;;
48215;SDS011;34005;48.844;10.098;2022-12-18T13:20:04;35.08;;;17.95;;
48215;SDS011;34005;48.844;10.098;2022-12-18T13:22:38;36.10;;;18.27;;
48215;SDS011;34005;48.844;10.098;2022-12-18T13:28:07;38.67;;;18.40;;
48215;SDS011;34005;48.844;10.098;2022-12-18T13:30:52;37.65;;;18.40;;
48215;SDS011;34005;48.844;10.098;2022-12-18T13:33:34;36.03;;;18.67;;
48215;SDS011;34005;48.844;10.098;2022-12-18T13:36:27;37.85;;;19.65;;
48215;SDS011;34005;48.844;10.098;2022-12-18T13:48:16;36.45;;;17.85;;
48215;SDS011;34005;48.844;10.098;2022-12-18T13:50:48;38.00;;;19.38;;
48215;SDS011;34005;48.844;10.098;2022-12-18T13:53:18;38.22;;;19.10;;
48215;SDS011;34005;48.844;10.098;2022-12-18T13:55:49;39.95;;;19.60;;
48215;SDS011;34005;48.844;10.098;2022-12-18T13:58:17;40.28;;;18.77;;
48215;SDS011;34005;48.844;10.098;2022-12-18T14:00:46;33.90;;;18.00;;
48215;SDS011;34005;48.844;10.098;2022-12-18T14:03:16;41.42;;;19.15;;
48215;SDS011;34005;48.844;10.098;2022-12-18T14:08:20;31.42;;;17.77;;
48215;SDS011;34005;48.844;10.098;2022-12-18T14:10:49;35.45;;;17.42;;
48215;SDS011;34005;48.844;10.098;2022-12-18T14:13:21;37.15;;;16.40;;
48215;SDS011;34005;48.844;10.098;2022-12-18T14:15:56;40.63;;;19.85;;
48215;SDS011;34005;48.844;10.098;2022-12-18T14:18:29;32.40;;;16.77;;
48215;SDS011;34005;48.844;10.098;2022-12-18T14:21:05;38.50;;;19.40;;
48215;SDS011;34005;48.844;10.098;2022-12-18T14:23:34;36.65;;;18.13;;
48215;SDS011;34005;48.844;10.098;2022-12-18T14:26:19;36.80;;;19.10;;
48215;SDS011;34005;48.844;10.098;2022-12-18T14:28:49;33.30;;;17.07;;
48215;SDS011;34005;48.844;10.098;2022-12-18T14:31:18;40.73;;;18.57;;
48215;SDS011;34005;48.844;10.098;2022-12-18T14:33:47;36.97;;;17.88;;
48215;SDS011;34005;48.844;10.098;2022-12-18T14:36:16;38.53;;;18.23;;
48215;SDS011;34005;48.844;10.098;2022-12-18T14:38:47;38.67;;;19.58;;
48215;SDS011;34005;48.844;10.098;2022-12-18T14:41:17;35.95;;;17.25;;
48215;SDS011;34005;48.844;10.098;2022-12-18T14:43:47;33.87;;;17.17;;
48215;SDS011;34005;48.844;10.098;2022-12-18T14:46:28;36.05;;;16.83;;
48215;SDS011;34005;48.844;10.098;2022-12-18T14:49:00;40.37;;;19.87;;
48215;SDS011;34005;48.844;10.098;2022-12-18T14:51:30;38.30;;;18.40;;
48215;SDS011;34005;48.844;10.098;2022-12-18T14:54:01;34.63;;;17.70;;